Prairie Home, Nebraska
Current Conditions -  °F | °C
As of 8:14 AM on Monday 22 Dec 2014 (Local Time) from KLNK Reporting Station
Haze Haze  
Wind Chill: 38°   Ceiling: 400
Heat Index: 43°   Visibility: 2mi
Dew Point: 42°   Wind: 8mph
Humidity: 97%   Direction: 170°S
Pressure: 29.51"   Gusts: NA
Location:  40.8461°N, 96.5203°W
Report Text: KLNK 221414Z 17007KT 2SM BR OVC004 06/06 A2951 RMK AO2 RAE14 P0000 T00610056
Loading
Personal Weather Stations






























Interactive Weather Map New forecast layout! Learn more

10-Day Weather Forecast

Advertisements
Track Severe Weather on mobile